Latest Weather Observations for Williamson

IDQ60801

Issued at 8:32 pm EST Thursday 26 May 2016 (issued every 30 minutes, with the page automatically refreshed every 10 minutes)

About weather observations | Map of weather stations | Latest weather observations for QLD | Other Formats
Station Details ID: 033195 Name: WILLIAMSON Lat: -22.47 Lon: 150.18 Height: 27.6 m
Data from the previous 72 hours. | See also: Recent months at Williamson
Date/Time
EST
Temp
°C
App
Temp
°C
Dew
Point
Rel
Hum
%
Delta-T
°C
Wind Press
QNH
hPa
Press
MSL
hPa
Rain
since 9 am
mm
Dir
 
Spd
km/h
Gust
km/h
Spd
kts
Gust
kts
26/08:30pm 22.9 24.5 19.1 79 2.4 N 9 17 5 9 1014.3 1014.2 0.0
26/08:00pm 22.1 24.2 19.3 84 1.8 N 7 11 4 6 1014.3 1014.2 0.0
26/07:30pm 21.6 23.7 19.0 85 1.6 NNE 6 7 3 4 1014.4 1014.3 0.0
26/07:00pm 22.5 24.7 19.3 82 2.0 NNE 6 11 3 6 1014.1 1014.0 0.0
26/06:30pm 22.5 24.7 19.5 83 1.9 NNE 7 11 4 6 1013.8 1013.7 0.0
26/06:00pm 22.9 24.9 18.7 77 2.7 NNE 6 7 3 4 1013.6 1013.5 0.0
26/05:30pm 23.8 25.1 18.4 72 3.4 N 9 15 5 8 1013.3 1013.2 0.0
26/05:00pm 24.6 25.0 18.1 67 4.1 N 13 20 7 11 1012.8 1012.7 0.0
26/04:30pm 25.3 25.1 17.7 62 4.8 NNE 15 26 8 14 1012.6 1012.5 0.0
26/04:00pm 25.5 24.6 17.7 62 4.9 NNE 19 30 10 16 1012.3 1012.2 0.0
26/03:30pm 26.4 25.6 17.2 57 5.7 N 17 30 9 16 1012.4 1012.3 0.0
26/03:00pm 26.8 25.6 17.0 55 6.1 NNE 19 32 10 17 1012.9 1012.8 0.0
26/02:30pm 27.2 26.1 17.7 56 6.0 NNE 20 35 11 19 1013.2 1013.1 0.0
26/02:00pm 26.9 25.8 17.4 56 6.0 NNE 19 30 10 16 1013.6 1013.5 0.0
26/01:30pm 27.4 26.3 17.3 54 6.3 NNE 19 30 10 16 1013.8 1013.7 0.0
26/01:00pm 27.4 27.1 17.3 54 6.3 N 15 24 8 13 1014.3 1014.2 0.0
26/12:30pm 27.5 27.0 16.8 52 6.7 N 15 30 8 16 1014.7 1014.6 0.0
26/12:00pm 28.3 28.3 18.1 54 6.5 NE 15 22 8 12 1015.1 1015.0 0.0
26/11:30am 27.3 27.6 17.8 56 6.0 NNE 13 22 7 12 1015.8 1015.7 0.0
26/11:00am 27.2 28.0 18.2 58 5.7 N 11 17 6 9 1016.2 1016.1 0.0
26/10:30am 26.6 27.0 18.2 60 5.3 NNE 13 22 7 12 1016.5 1016.4 0.0
26/10:00am 26.2 26.5 17.8 60 5.3 N 13 19 7 10 1016.9 1016.8 0.0
26/09:30am 26.0 27.5 18.9 65 4.5 N 9 17 5 9 1017.1 1017.0 0.0
26/09:00am 24.3 26.3 19.1 73 3.3 N 7 9 4 5 1017.2 1017.1 0.0
26/08:30am 22.7 26.0 19.1 80 2.3 CALM 0 0 0 0 1017.2 1017.1 0.0
26/08:00am 19.8 22.8 18.5 92 0.8 CALM 0 0 0 0 1017.2 1017.1 0.0
26/07:30am 17.5 20.0 17.2 98 0.2 CALM 0 0 0 0 1017.0 1016.9 0.0
26/07:00am 15.0 16.5 14.7 98 0.2 CALM 0 0 0 0 1016.8 1016.7 0.0
26/06:30am 14.7 16.0 14.2 97 0.3 CALM 0 0 0 0 1016.5 1016.4 0.0
26/06:00am 14.7 16.0 14.2 97 0.3 CALM 0 0 0 0 1016.4 1016.3 0.0
26/05:30am 15.1 16.6 14.6 97 0.3 CALM 0 0 0 0 1016.1 1016.0 0.0
26/05:00am 15.1 16.5 14.5 96 0.3 CALM 0 0 0 0 1015.9 1015.8 0.0
26/04:30am 15.7 17.4 15.2 97 0.3 CALM 0 0 0 0 1016.0 1015.9 0.0
26/04:00am 15.8 17.2 15.3 97 0.3 SE 2 6 1 3 1015.9 1015.8 0.0
26/03:30am 15.7 17.4 15.2 97 0.3 CALM 0 0 0 0 1016.0 1015.9 0.0
26/03:00am 15.9 17.7 15.4 97 0.3 CALM 0 0 0 0 1016.1 1016.0 0.0
26/02:30am 16.0 17.8 15.4 96 0.3 CALM 0 0 0 0 1016.2 1016.1 0.0
26/02:00am 16.5 18.1 15.9 96 0.4 SE 2 7 1 4 1016.5 1016.4 0.0
26/01:30am 16.7 18.3 15.9 95 0.5 SSE 2 6 1 3 1016.9 1016.8 0.0
26/01:00am 17.0 19.1 16.2 95 0.5 CALM 0 0 0 0 1016.8 1016.7 0.0
26/12:30am 17.2 19.3 16.2 94 0.6 CALM 0 0 0 0 1017.2 1017.1 0.0
26/12:00am 17.6 19.8 16.6 94 0.6 CALM 0 0 0 0 1017.2 1017.1 0.0
 
Date/Time
EST
Temp
°C
App
Temp
°C
Dew
Point
Rel
Hum
%
Delta-T
°C
Wind Press
QNH
hPa
Press
MSL
hPa
Rain
since 9 am
mm
Dir
 
Spd
km/h
Gust
km/h
Spd
kts
Gust
kts
25/11:30pm 17.6 19.8 16.5 93 0.7 CALM 0 0 0 0 1017.2 1017.1 0.0
25/11:00pm 18.4 20.5 17.2 93 0.7 NNE 2 6 1 3 1017.1 1017.0 0.0
25/10:30pm 18.6 21.0 17.1 91 0.9 CALM 0 0 0 0 1017.2 1017.1 0.0
25/10:00pm 18.9 21.3 16.9 88 1.2 CALM 0 2 0 1 1017.1 1017.0 0.0
25/09:30pm 19.7 21.1 17.3 86 1.5 NNE 6 7 3 4 1017.2 1017.1 0.0
25/09:00pm 20.2 21.6 17.8 86 1.5 N 7 9 4 5 1017.4 1017.3 0.0
25/08:30pm 21.1 23.0 17.7 81 2.1 N 4 7 2 4 1017.2 1017.1 0.0
25/08:00pm 21.8 22.8 17.8 78 2.5 NE 9 13 5 7 1016.9 1016.8 0.0
25/07:30pm 22.0 23.6 17.8 77 2.6 NNE 6 9 3 5 1016.6 1016.5 0.0
25/07:00pm 22.1 23.5 17.9 77 2.6 NE 7 11 4 6 1016.3 1016.2 0.0
25/06:30pm 22.3 24.4 18.1 77 2.6 NNE 4 7 2 4 1016.0 1015.9 0.0
25/06:00pm 23.1 25.2 18.2 74 3.1 NNE 4 7 2 4 1015.5 1015.4 0.0
25/05:30pm 23.8 25.0 18.2 71 3.5 NNE 9 13 5 7 1015.0 1014.9 0.0
25/05:00pm 24.6 25.7 18.8 70 3.7 NNE 11 17 6 9 1014.8 1014.7 0.0
25/04:30pm 25.4 25.6 17.6 62 4.9 NNE 13 19 7 10 1014.9 1014.8 0.0
25/04:00pm 26.4 26.5 17.5 58 5.6 NNE 13 19 7 10 1014.8 1014.7 0.0
25/03:30pm 27.0 26.6 16.3 52 6.6 NNE 13 20 7 11 1014.7 1014.6 0.0
25/03:00pm 27.6 27.6 16.2 49 7.0 NNE 11 17 6 9 1014.8 1014.7 0.0
25/02:30pm 27.2 26.6 15.6 49 7.1 NNE 13 22 7 12 1014.9 1014.8 0.0
25/02:00pm 27.4 27.1 16.4 51 6.8 NNE 13 24 7 13 1015.1 1015.0 0.0
25/01:30pm 28.5 29.2 17.1 50 7.2 NNE 9 20 5 11 1015.4 1015.3 0.0
25/01:00pm 28.4 29.1 17.0 50 7.1 NNE 9 20 5 11 1015.7 1015.6 0.0
25/12:30pm 28.2 28.5 13.3 40 8.8 NNW 4 11 2 6 1016.2 1016.1 0.0
25/12:00pm 27.3 27.6 15.0 47 7.4 SW 7 15 4 8 1016.9 1016.8 0.0
25/11:30am 26.1 26.5 16.4 55 6.0 W 9 13 5 7 1017.4 1017.3 0.0
25/11:00am 25.3 26.4 17.0 60 5.1 SW 7 13 4 7 1017.7 1017.6 0.0
25/10:30am 24.7 25.3 16.9 62 4.8 SSW 9 15 5 8 1017.9 1017.8 0.0
25/10:00am 23.8 24.3 16.6 64 4.4 SW 9 11 5 6 1018.1 1018.0 0.0
25/09:30am 23.3 23.7 16.4 65 4.2 S 9 11 5 6 1018.2 1018.1 0.0
25/09:00am 22.1 22.0 16.1 69 3.6 S 11 19 6 10 1018.1 1018.0 0.0
25/08:30am 20.3 21.0 16.1 77 2.5 SSE 7 13 4 7 1018.2 1018.1 0.0
25/08:00am 19.4 20.3 16.1 81 2.0 SSE 6 9 3 5 1018.1 1018.0 0.0
25/07:30am 18.0 20.2 17.5 97 0.3 S 2 7 1 4 1017.8 1017.7 0.0
25/07:00am 17.0 19.2 16.4 96 0.4 CALM 0 0 0 0 1017.2 1017.1 0.0
25/06:30am 16.7 18.7 15.9 95 0.5 CALM 0 0 0 0 1017.0 1016.9 0.0
25/06:00am 17.3 19.6 16.8 97 0.3 CALM 0 0 0 0 1016.7 1016.6 0.0
25/05:30am 17.2 19.4 16.6 96 0.4 CALM 0 0 0 0 1016.3 1016.2 0.0
25/05:00am 17.2 19.4 16.6 96 0.4 CALM 0 0 0 0 1016.2 1016.1 0.0
25/04:30am 17.1 19.3 16.5 96 0.4 CALM 0 0 0 0 1016.3 1016.2 0.0
25/04:00am 17.3 19.6 16.7 96 0.4 CALM 0 0 0 0 1016.2 1016.1 0.0
25/03:30am 17.2 19.3 16.2 94 0.6 CALM 0 0 0 0 1016.3 1016.2 0.0
25/03:00am 17.8 20.1 16.8 94 0.6 CALM 0 0 0 0 1016.6 1016.5 0.0
25/02:30am 17.8 20.1 16.8 94 0.6 CALM 0 0 0 0 1016.4 1016.3 0.0
25/02:00am 18.0 20.4 16.9 93 0.7 CALM 0 0 0 0 1016.7 1016.6 0.0
25/01:30am 18.3 20.8 17.3 94 0.6 CALM 0 0 0 0 1017.2 1017.1 0.0
25/01:00am 18.0 20.4 17.0 94 0.6 CALM 0 0 0 0 1017.5 1017.4 0.0
25/12:30am 18.1 20.5 17.0 93 0.7 CALM 0 0 0 0 1017.5 1017.4 0.0
25/12:00am 18.5 20.9 17.0 91 0.9 CALM 0 0 0 0 1017.3 1017.2 0.0
 
Date/Time
EST
Temp
°C
App
Temp
°C
Dew
Point
Rel
Hum
%
Delta-T
°C
Wind Press
QNH
hPa
Press
MSL
hPa
Rain
since 9 am
mm
Dir
 
Spd
km/h
Gust
km/h
Spd
kts
Gust
kts
24/11:30pm 18.8 21.3 17.3 91 0.9 CALM 0 0 0 0 1017.4 1017.3 0.0
24/11:00pm 19.0 21.5 17.3 90 1.0 CALM 0 0 0 0 1017.6 1017.5 0.0
24/10:30pm 19.3 21.1 17.3 88 1.2 SSW 4 6 2 3 1017.6 1017.5 0.0
24/10:00pm 19.7 22.3 17.5 87 1.3 CALM 0 0 0 0 1017.7 1017.6 0.0
24/09:30pm 20.1 22.7 17.5 85 1.6 CALM 0 0 0 0 1017.8 1017.7 0.0
24/09:00pm 20.6 23.2 17.6 83 1.8 CALM 0 0 0 0 1017.6 1017.5 0.0
24/08:30pm 21.7 24.4 17.7 78 2.5 CALM 0 0 0 0 1017.6 1017.5 0.0
24/08:00pm 22.2 23.9 18.0 77 2.6 ENE 6 9 3 5 1017.1 1017.0 0.0
24/07:30pm 22.5 24.1 17.8 75 2.9 ENE 6 7 3 4 1017.2 1017.1 0.0
24/07:00pm 23.1 24.7 17.8 72 3.3 NE 6 9 3 5 1017.1 1017.0 0.0
24/06:30pm 23.4 24.8 17.4 69 3.7 NE 6 9 3 5 1017.1 1017.0 0.0
24/06:00pm 23.6 24.9 17.6 69 3.7 NNE 7 11 4 6 1016.8 1016.7 0.0
24/05:30pm 23.9 26.0 17.2 66 4.1 NNE 2 7 1 4 1016.4 1016.3 0.0
24/05:00pm 24.7 25.7 16.9 62 4.8 NE 7 11 4 6 1016.2 1016.1 0.0
24/04:30pm 25.3 25.9 16.7 59 5.3 NE 9 17 5 9 1015.9 1015.8 0.0
24/04:00pm 26.5 27.2 17.0 56 5.9 NE 9 15 5 8 1015.5 1015.4 0.0
24/03:30pm 26.9 26.5 16.2 52 6.6 NE 13 17 7 9 1015.4 1015.3 0.0
24/03:00pm 26.2 25.8 16.2 54 6.1 NNE 13 19 7 10 1015.2 1015.1 0.0
24/02:30pm 26.4 26.0 16.1 53 6.3 NE 13 20 7 11 1015.1 1015.0 0.0
24/02:00pm 27.3 27.3 15.3 48 7.3 ENE 9 15 5 8 1015.2 1015.1 0.0
24/01:30pm 28.6 28.6 14.1 41 8.7 ESE 7 17 4 9 1015.2 1015.1 0.0
24/01:00pm 29.0 27.8 14.0 39 9.0 S 13 24 7 13 1015.5 1015.4 0.0
24/12:30pm 28.4 28.6 15.7 46 7.8 SE 9 19 5 10 1015.9 1015.8 0.0
24/12:00pm 27.8 28.2 16.4 50 7.1 SW 9 50 5 27 1016.5 1016.4 0.0
24/11:30am 26.7 27.6 16.0 52 6.6 SSW 6 13 3 7 1016.9 1016.8 0.0
24/11:00am 26.1 26.7 15.8 53 6.3 SW 7 13 4 7 1017.4 1017.3 0.0
24/10:30am 25.7 26.8 16.5 56 5.7 W 6 13 3 7 1017.7 1017.6 0.0
24/10:00am 24.8 26.2 15.4 56 5.7 S 2 7 1 4 1018.1 1018.0 0.0
24/09:30am 23.0 24.7 17.2 70 3.6 SW 4 7 2 4 1018.6 1018.5 0.0
24/09:00am 21.9 24.9 18.5 81 2.1 CALM 0 0 0 0 1018.7 1018.6 0.8
24/08:30am 20.8 23.5 18.6 87 1.4 SW 2 6 1 3 1018.6 1018.5 0.8
24/08:00am 19.9 23.0 18.7 93 0.7 CALM 0 0 0 0 1018.4 1018.3 0.8
24/07:30am 19.4 22.5 18.6 95 0.5 CALM 0 0 0 0 1017.9 1017.8 0.8
24/07:00am 19.0 22.0 18.5 97 0.3 CALM 0 6 0 3 1017.8 1017.7 0.8
24/06:30am 19.0 22.1 18.7 98 0.2 CALM 0 0 0 0 1017.8 1017.7 0.8
24/06:00am 19.1 21.8 18.6 97 0.3 NW 2 6 1 3 1017.7 1017.6 0.8
24/05:30am 19.2 22.0 18.0 93 0.7 CALM 0 0 0 0 1017.5 1017.4 0.8
24/05:00am 19.3 21.3 17.8 91 0.9 SSE 4 6 2 3 1017.3 1017.2 0.8
24/04:30am 19.2 21.0 18.4 95 0.5 SSE 6 7 3 4 1017.3 1017.2 0.8
24/04:00am 19.4 22.6 18.9 97 0.3 CALM 0 0 0 0 1017.5 1017.4 0.8
24/03:30am 19.7 23.1 19.4 98 0.2 CALM 0 0 0 0 1017.6 1017.5 0.8
24/03:00am 19.6 22.9 19.1 97 0.3 CALM 0 0 0 0 1017.8 1017.7 0.8
24/02:30am 19.6 22.9 19.1 97 0.3 CALM 0 0 0 0 1017.8 1017.7 0.8
24/02:00am 19.7 23.1 19.4 98 0.2 CALM 0 0 0 0 1018.2 1018.1 0.8
24/01:30am 19.9 23.4 19.6 98 0.2 CALM 0 0 0 0 1018.2 1018.1 0.8
24/01:00am 20.0 23.5 19.5 97 0.3 CALM 0 0 0 0 1018.3 1018.2 0.8
24/12:30am 20.1 23.7 19.8 98 0.2 CALM 0 0 0 0 1018.4 1018.3 0.8
24/12:00am 20.1 23.6 19.6 97 0.3 CALM 0 0 0 0 1018.3 1018.2 0.8
 
Date/Time
EST
Temp
°C
App
Temp
°C
Dew
Point
Rel
Hum
%
Delta-T
°C
Wind Press
QNH
hPa
Press
MSL
hPa
Rain
since 9 am
mm
Dir
 
Spd
km/h
Gust
km/h
Spd
kts
Gust
kts
23/11:30pm 20.1 23.4 19.1 94 0.6 CALM 0 0 0 0 1018.4 1018.3 0.8
23/11:00pm 20.0 23.2 18.8 93 0.7 CALM 0 0 0 0 1018.5 1018.4 0.8
23/10:30pm 20.4 23.7 19.2 93 0.8 CALM 0 0 0 0 1018.6 1018.5 0.6
23/10:00pm 20.3 23.6 19.0 92 0.8 CALM 0 0 0 0 1018.6 1018.5 0.4
23/09:30pm 20.6 23.6 18.5 88 1.3 CALM 0 0 0 0 1018.7 1018.6 0.0
23/09:00pm 21.4 23.5 18.0 81 2.1 S 4 6 2 3 1018.7 1018.6 0.0

Other Formats:

Comma delimited format used in spreadsheet applications
http://www.bom.gov.au/fwo/IDQ60801/IDQ60801.95370.axf

JavaScript Object Notation format (JSON) in row-major order
http://www.bom.gov.au/fwo/IDQ60801/IDQ60801.95370.json